Honolulu, HI (96815)

3:16 PM HST on March 26, 2017 (GMT -1000)
Allure Waikiki | | Change Station

Elev 0 ft 21.29 °N, 157.83 °W | Updated 34 seconds ago

Partly Cloudy
Partly Cloudy
81.4 °F
Feels Like 82 °F
N
4.0
Wind Variable Wind from NNE

Today
High -- | Low -- °F
--% Chance of Precip.
Yesterday
High -- | Low -- °F
Precip. -- in
Pressure 30.11 in
Visibility 10.0 miles
Clouds Few 2600 ft
Scattered Clouds 5000 ft
Scattered Clouds 6000 ft
Mostly Cloudy 20000 ft
Heat Index 82 °F
Dew Point 61 °F
Humidity 50%
Rainfall 0.00 in
Snow Depth Not available.
6:29 AM 6:44 PM
Waning Crescent, 2% visible
METAR PHNL 270053Z 05018G25KT 10SM FEW026 SCT050 SCT060 BKN200 29/16 A3011 RMK AO2 SLP194 T02890161 $
Pressure 30.11 in
Visibility 10.0 miles
Clouds Few 2600 ft
Scattered Clouds 5000 ft
Scattered Clouds 6000 ft
Mostly Cloudy 20000 ft
Heat Index 82 °F
Dew Point 61 °F
Humidity 50%
Rainfall 0.00 in
Snow Depth Not available.
6:29 AM 6:44 PM
Waning Crescent, 2% visible
METAR PHNL 270053Z 05018G25KT 10SM FEW026 SCT050 SCT060 BKN200 29/16 A3011 RMK AO2 SLP194 T02890161 $

Get Severe Weather Alerts

Thanks for signing up!

Be on the lookout for a verification email in your inbox.

You'll start receiving the daily forecast at 8 AM.

×

10-Day Weather Forecast

Almanac

Astronomy

Mar. 26, 2017 Rise Set
Actual Time
Civil Twilight
Nautical Twilight
Astronomical Twilight
Moon
Length of Visible Light
Length of Day
Tomorrow will be .
, % of the Moon is Illuminated

Today's Extremes

State Highs State Lows

Community

WunderPhotos

Upload Photos

1,962,540 photos uploaded!

WunderBlog® & News

Nearby

Air Quality

  Air Quality AQ Index Pollutant
Not available.

Snow Depth

Station Depth Elevation

Earthquake Activity

City Distance Mag. Time & Date
Minimum magnitude displayed is 2.5.

Earthquake Activity

City Distance Mag. Time & Date
Minimum magnitude displayed is 2.5.

Coastal Water Temperatures

Place Temperature

Stations

Nearby Weather Stations

Station Location Temp. Windchill Dew Point Humidity Wind Precip. Elev Updated Type
                   

Watches & Warnings

There are currently no watches in effect.